createdAt,value
2018-09-17T00:01:20.804Z,98829.31
2018-09-17T00:03:50.235Z,98828.30
2018-09-17T00:06:19.813Z,98832.31
2018-09-17T00:08:49.627Z,98832.02
2018-09-17T00:11:19.132Z,98839.91
2018-09-17T00:13:48.841Z,98836.11
2018-09-17T00:16:18.339Z,98836.28
2018-09-17T00:18:47.747Z,98828.25
2018-09-17T00:21:17.251Z,98835.27
2018-09-17T00:23:46.757Z,98833.45
2018-09-17T00:26:16.157Z,98830.81
2018-09-17T00:28:45.558Z,98831.97
2018-09-17T00:31:14.961Z,98832.82
2018-09-17T00:33:44.363Z,98829.52
2018-09-17T00:36:13.765Z,98834.47
2018-09-17T00:38:43.267Z,98833.84
2018-09-17T00:41:12.562Z,98837.45
2018-09-17T00:43:42.072Z,98835.46
2018-09-17T00:46:11.577Z,98828.56
2018-09-17T00:48:40.979Z,98824.14
2018-09-17T00:51:10.483Z,98826.69
2018-09-17T00:53:39.889Z,98828.48
2018-09-17T00:56:09.210Z,98834.97
2018-09-17T00:58:38.689Z,98827.70
2018-09-17T01:01:08.194Z,98832.49
2018-09-17T01:03:37.800Z,98824.20
2018-09-17T01:06:07.202Z,98823.25
2018-09-17T01:08:36.809Z,98827.50
2018-09-17T01:11:06.519Z,98834.75
2018-09-17T01:13:35.838Z,98835.92
2018-09-17T01:16:05.219Z,98833.29
2018-09-17T01:18:34.725Z,98834.05
2018-09-17T01:21:04.127Z,98829.00
2018-09-17T01:23:33.632Z,98828.93
2018-09-17T01:26:03.027Z,98826.14
2018-09-17T01:28:32.435Z,98838.23
2018-09-17T01:31:01.853Z,98829.49
2018-09-17T01:33:31.271Z,98830.48
2018-09-17T01:36:00.844Z,98830.70
2018-09-17T01:38:30.336Z,98827.78
2018-09-17T01:40:59.878Z,98838.82
2018-09-17T01:43:29.458Z,98833.57
2018-09-17T01:45:58.860Z,98831.27
2018-09-17T01:48:28.263Z,98838.47
2018-09-17T01:50:57.665Z,98838.48
2018-09-17T01:53:26.970Z,98838.00
2018-09-17T01:55:56.468Z,98838.50
2018-09-17T01:58:26.689Z,98841.63
2018-09-17T02:00:56.298Z,98842.33
2018-09-17T02:03:25.799Z,98844.81
2018-09-17T02:05:55.203Z,98847.47
2018-09-17T02:08:24.603Z,98840.88
2018-09-17T02:10:54.106Z,98840.36
2018-09-17T02:13:23.620Z,98849.80
2018-09-17T02:15:53.067Z,98848.64
2018-09-17T02:18:22.516Z,98852.98
2018-09-17T02:20:51.922Z,98849.66
2018-09-17T02:23:21.470Z,98850.98
2018-09-17T02:25:50.931Z,98847.66
2018-09-17T02:28:20.332Z,98850.00
2018-09-17T02:30:49.734Z,98844.24
2018-09-17T02:33:19.349Z,98844.25
2018-09-17T02:35:48.699Z,98847.08
2018-09-17T02:38:18.162Z,98845.13
2018-09-17T02:40:47.500Z,98848.06
2018-09-17T02:43:16.852Z,98844.97
2018-09-17T02:45:46.248Z,98852.05
2018-09-17T02:48:15.753Z,98849.06
2018-09-17T02:50:45.091Z,98842.63
2018-09-17T02:53:14.453Z,98844.45
2018-09-17T02:55:43.854Z,98849.06
2018-09-17T02:58:13.155Z,98848.59
2018-09-17T03:00:42.559Z,98844.48
2018-09-17T03:03:11.960Z,98841.02
2018-09-17T03:05:41.360Z,98850.23
2018-09-17T03:08:10.761Z,98845.95
2018-09-17T03:10:40.168Z,98853.36
2018-09-17T03:13:09.566Z,98853.36
2018-09-17T03:15:46.196Z,98855.34
2018-09-17T03:18:15.743Z,98852.69
2018-09-17T03:20:45.145Z,98844.11
2018-09-17T03:23:14.650Z,98843.28
2018-09-17T03:25:44.154Z,98840.98
2018-09-17T03:28:13.556Z,98837.55
2018-09-17T03:30:43.020Z,98834.24
2018-09-17T03:33:12.563Z,98839.50
2018-09-17T03:35:41.862Z,98845.43
2018-09-17T03:38:48.334Z,98843.45
2018-09-17T03:41:18.819Z,98843.47
2018-09-17T03:43:51.131Z,98844.79
2018-09-17T03:46:20.664Z,98832.79
2018-09-17T03:48:50.036Z,98823.58
2018-09-17T03:51:19.273Z,98830.63
2018-09-17T03:53:48.634Z,98829.16
2018-09-17T03:56:18.037Z,98830.62
2018-09-17T03:58:47.442Z,98829.98
2018-09-17T04:01:16.842Z,98841.17
2018-09-17T04:03:46.447Z,98836.89
2018-09-17T04:06:15.849Z,98844.44
2018-09-17T04:08:45.350Z,98839.02
2018-09-17T04:11:14.756Z,98836.40
2018-09-17T04:13:44.157Z,98841.49
2018-09-17T04:16:13.525Z,98841.00
2018-09-17T04:18:42.856Z,98845.44
2018-09-17T04:21:12.260Z,98845.41
2018-09-17T04:23:41.764Z,98843.46
2018-09-17T04:26:12.293Z,98842.80
2018-09-17T04:28:41.901Z,98844.45
2018-09-17T04:31:11.201Z,98841.48
2018-09-17T04:33:42.754Z,98839.81
2018-09-17T04:36:12.949Z,98837.36
2018-09-17T04:38:42.275Z,98839.97
2018-09-17T04:41:11.670Z,98850.52
2018-09-17T04:43:40.971Z,98852.14
2018-09-17T04:46:10.497Z,98852.63
2018-09-17T04:48:39.886Z,98850.66
2018-09-17T04:51:09.281Z,98847.70
2018-09-17T04:53:38.684Z,98844.09
2018-09-17T04:56:07.986Z,98854.25
2018-09-17T04:58:37.282Z,98854.09
2018-09-17T05:01:06.789Z,98863.45
2018-09-17T05:03:36.190Z,98867.05
2018-09-17T05:06:05.590Z,98866.75
2018-09-17T05:08:34.979Z,98860.32
2018-09-17T05:11:04.501Z,98869.70
2018-09-17T05:13:33.990Z,98869.54
2018-09-17T05:16:03.707Z,98870.05
2018-09-17T05:18:33.015Z,98866.44
2018-09-17T05:21:02.411Z,98865.48
2018-09-17T05:23:31.733Z,98864.98
2018-09-17T05:26:01.112Z,98861.20
2018-09-17T05:28:30.513Z,98862.83
2018-09-17T05:30:59.915Z,98867.45
2018-09-17T05:33:29.317Z,98867.13
2018-09-17T05:35:58.824Z,98868.78
2018-09-17T05:38:28.328Z,98873.39
2018-09-17T05:40:57.624Z,98870.09
2018-09-17T05:43:27.235Z,98870.60
2018-09-17T05:45:56.637Z,98870.78
2018-09-17T05:48:26.037Z,98865.37
2018-09-17T05:50:55.543Z,98864.42
2018-09-17T05:53:25.156Z,98877.94
2018-09-17T05:55:54.754Z,98867.06
2018-09-17T05:58:24.158Z,98864.28
2018-09-17T06:00:53.559Z,98859.59
2018-09-17T06:03:22.961Z,98861.28
2018-09-17T06:05:52.412Z,98860.94
2018-09-17T06:08:21.802Z,98871.84
2018-09-17T06:10:51.397Z,98870.59
2018-09-17T06:13:20.875Z,98875.52
2018-09-17T06:15:50.790Z,98873.63
2018-09-17T06:18:20.171Z,98872.17
2018-09-17T06:20:49.696Z,98877.49
2018-09-17T06:23:19.114Z,98876.72
2018-09-17T06:25:48.602Z,98880.09
2018-09-17T06:28:18.084Z,98881.99
2018-09-17T06:30:47.610Z,98870.22
2018-09-17T06:33:17.029Z,98865.44
2018-09-17T06:35:46.413Z,98870.28
2018-09-17T06:38:15.712Z,98869.18
2018-09-17T06:40:45.115Z,98858.49
2018-09-17T06:43:14.620Z,98867.38
2018-09-17T06:45:44.125Z,98875.14
2018-09-17T06:48:13.527Z,98872.94
2018-09-17T06:50:43.030Z,98869.09
2018-09-17T06:53:12.533Z,98873.17
2018-09-17T06:55:41.858Z,98870.09
2018-09-17T06:58:11.236Z,98868.22
2018-09-17T07:00:40.741Z,98867.54
2018-09-17T07:03:10.142Z,98866.48
2018-09-17T07:05:39.545Z,98866.81
2018-09-17T07:08:08.949Z,98865.38
2018-09-17T07:10:38.348Z,98859.97
2018-09-17T07:13:07.952Z,98865.54
2018-09-17T07:15:37.359Z,98862.48
2018-09-17T07:18:06.916Z,98861.05
2018-09-17T07:20:36.260Z,98854.38
2018-09-17T07:23:05.779Z,98858.23
2018-09-17T07:25:35.244Z,98854.52
2018-09-17T07:28:04.667Z,98864.83
2018-09-17T07:30:34.009Z,98863.84
2018-09-17T07:33:03.375Z,98867.48
2018-09-17T07:35:32.879Z,98862.19
2018-09-17T07:38:02.689Z,98863.87
2018-09-17T07:40:32.311Z,98860.33
2018-09-17T07:43:01.699Z,98855.59
2018-09-17T07:45:31.155Z,98848.63
2018-09-17T07:48:00.504Z,98851.38
2018-09-17T07:50:29.904Z,98853.41
2018-09-17T07:52:59.333Z,98847.98
2018-09-17T07:55:28.811Z,98839.69
2018-09-17T07:57:58.215Z,98834.76
2018-09-17T08:00:29.150Z,98834.99
2018-09-17T08:02:58.660Z,98834.58
2018-09-17T08:05:28.054Z,98838.86
2018-09-17T08:07:57.353Z,98842.98
2018-09-17T08:10:27.051Z,98848.91
2018-09-17T08:12:56.571Z,98849.19
2018-09-17T08:15:26.071Z,98852.75
2018-09-17T08:17:55.475Z,98857.53
2018-09-17T08:20:24.966Z,98859.95
2018-09-17T08:22:54.380Z,98859.33
2018-09-17T08:25:24.026Z,98855.30
2018-09-17T08:27:53.308Z,98856.74
2018-09-17T08:30:22.790Z,98854.27
2018-09-17T08:32:52.294Z,98855.25
2018-09-17T08:35:21.803Z,98851.77
2018-09-17T08:37:51.301Z,98849.63
2018-09-17T08:40:20.604Z,98851.20
2018-09-17T08:42:50.021Z,98847.36
2018-09-17T08:45:19.507Z,98847.69
2018-09-17T08:47:48.915Z,98856.83
2018-09-17T08:50:18.313Z,98852.52
2018-09-17T08:52:47.638Z,98860.14
2018-09-17T08:55:22.485Z,98856.31
2018-09-17T08:57:56.861Z,98846.73
2018-09-17T09:00:31.689Z,98854.34
2018-09-17T09:03:06.210Z,98863.78
2018-09-17T09:06:39.000Z,98859.73
2018-09-17T09:09:10.327Z,98853.83
2018-09-17T09:11:44.867Z,98847.88
2018-09-17T09:14:19.394Z,98849.06
2018-09-17T09:16:48.792Z,98851.88
2018-09-17T09:19:18.099Z,98849.38
2018-09-17T09:21:47.599Z,98839.53
2018-09-17T09:24:16.998Z,98839.11
2018-09-17T09:26:46.503Z,98836.66
2018-09-17T09:29:15.904Z,98837.96
2018-09-17T09:31:45.414Z,98839.22
2018-09-17T09:34:14.912Z,98840.18
2018-09-17T09:36:44.416Z,98836.78
2018-09-17T09:39:13.819Z,98833.38
2018-09-17T09:41:43.304Z,98841.92
2018-09-17T09:44:12.895Z,98837.91
2018-09-17T09:46:42.313Z,98830.41
2018-09-17T09:49:11.733Z,98827.42
2018-09-17T09:51:41.134Z,98819.92
2018-09-17T09:54:10.537Z,98814.78
2018-09-17T09:56:39.939Z,98812.91
2018-09-17T09:59:09.348Z,98820.45
2018-09-17T10:02:45.918Z,98813.16
2018-09-17T10:05:15.378Z,98813.17
2018-09-17T10:07:44.644Z,98812.36
2018-09-17T10:10:19.250Z,98808.30
2018-09-17T10:12:54.075Z,98806.08
2018-09-17T10:15:30.539Z,98796.55
2018-09-17T10:19:09.164Z,98794.88
2018-09-17T10:21:38.464Z,98793.78
2018-09-17T10:24:07.763Z,98792.97
2018-09-17T10:26:37.066Z,98792.70
2018-09-17T10:29:06.568Z,98787.78
2018-09-17T10:31:36.189Z,98790.47
2018-09-17T10:34:05.678Z,98777.98
2018-09-17T10:36:35.181Z,98779.38
2018-09-17T10:39:06.452Z,98784.84
2018-09-17T10:41:35.936Z,98779.88
2018-09-17T10:44:06.562Z,98772.09
2018-09-17T10:46:36.784Z,98772.91
2018-09-17T10:49:06.515Z,98767.34
2018-09-17T10:51:35.895Z,98768.41
2018-09-17T10:54:05.598Z,98768.63
2018-09-17T10:56:35.006Z,98759.09
2018-09-17T10:59:04.408Z,98755.81
2018-09-17T11:01:33.709Z,98748.20
2018-09-17T11:04:03.108Z,98741.28
2018-09-17T11:06:32.717Z,98745.19
2018-09-17T11:09:02.116Z,98733.91
2018-09-17T11:11:31.521Z,98744.67
2018-09-17T11:14:00.922Z,98746.27
2018-09-17T11:16:30.221Z,98741.11
2018-09-17T11:18:59.571Z,98730.95
2018-09-17T11:21:28.959Z,98734.75
2018-09-17T11:23:58.374Z,98729.99
2018-09-17T11:26:27.830Z,98732.39
2018-09-17T11:28:57.334Z,98728.00
2018-09-17T11:31:26.884Z,98735.09
2018-09-17T11:33:56.440Z,98729.71
2018-09-17T11:36:25.948Z,98731.11
2018-09-17T11:38:55.556Z,98730.89
2018-09-17T11:41:24.892Z,98730.48
2018-09-17T11:43:54.361Z,98727.85
2018-09-17T11:46:23.760Z,98729.64
2018-09-17T11:48:53.159Z,98729.01
2018-09-17T11:51:22.567Z,98726.29
2018-09-17T11:53:51.871Z,98725.00
2018-09-17T11:56:21.272Z,98723.31
2018-09-17T11:58:50.772Z,98723.11
2018-09-17T12:01:25.702Z,98712.54
2018-09-17T12:04:00.325Z,98720.16
2018-09-17T12:06:34.836Z,98714.39
2018-09-17T12:09:05.480Z,98714.71
2018-09-17T12:11:34.869Z,98706.33
2018-09-17T12:14:04.284Z,98709.25
2018-09-17T12:16:33.788Z,98703.55
2018-09-17T12:19:03.190Z,98698.55
2018-09-17T12:21:32.592Z,98699.02
2018-09-17T12:24:02.362Z,98689.37
2018-09-17T12:26:31.699Z,98692.67
2018-09-17T12:29:01.209Z,98691.67
2018-09-17T12:31:30.556Z,98684.00
2018-09-17T12:34:00.090Z,98677.97
2018-09-17T12:36:29.517Z,98682.77
2018-09-17T12:38:58.918Z,98677.80
2018-09-17T12:41:28.423Z,98676.03
2018-09-17T12:43:57.922Z,98678.08
2018-09-17T12:46:27.328Z,98677.09
2018-09-17T12:48:56.834Z,98672.84
2018-09-17T12:51:26.543Z,98671.23
2018-09-17T12:53:56.246Z,98669.34
2018-09-17T12:56:25.654Z,98669.64
2018-09-17T12:58:55.181Z,98660.15
2018-09-17T13:01:24.679Z,98658.06
2018-09-17T13:03:54.079Z,98659.61
2018-09-17T13:06:23.569Z,98663.52
2018-09-17T13:08:53.177Z,98653.09
2018-09-17T13:11:22.680Z,98655.57
2018-09-17T13:13:52.247Z,98641.84
2018-09-17T13:16:21.582Z,98646.91
2018-09-17T13:18:52.019Z,98648.22
2018-09-17T13:21:21.632Z,98648.81
2018-09-17T13:23:51.023Z,98640.58
2018-09-17T13:26:20.631Z,98645.24
2018-09-17T13:28:50.133Z,98641.08
2018-09-17T13:31:19.638Z,98632.14
2018-09-17T13:33:49.052Z,98629.14
2018-09-17T13:36:18.442Z,98626.67
2018-09-17T13:38:47.946Z,98629.45
2018-09-17T13:41:17.350Z,98632.20
2018-09-17T13:43:46.649Z,98623.14
2018-09-17T13:46:16.033Z,98622.13
2018-09-17T13:48:45.349Z,98625.86
2018-09-17T13:51:14.860Z,98620.27
2018-09-17T13:53:44.268Z,98619.70
2018-09-17T13:56:13.710Z,98619.17
2018-09-17T13:58:43.368Z,98617.27
2018-09-17T14:01:12.772Z,98617.38
2018-09-17T14:03:42.274Z,98615.80
2018-09-17T14:06:11.676Z,98605.41
2018-09-17T14:08:41.284Z,98607.66
2018-09-17T14:11:10.787Z,98610.48
2018-09-17T14:13:40.192Z,98598.56
2018-09-17T14:16:10.302Z,98601.42
2018-09-17T14:18:40.119Z,98596.52
2018-09-17T14:21:09.627Z,98596.48
2018-09-17T14:23:39.023Z,98598.31
2018-09-17T14:26:08.598Z,98594.63
2018-09-17T14:28:37.947Z,98592.02
2018-09-17T14:31:07.461Z,98591.14
2018-09-17T14:33:38.679Z,98583.33
2018-09-17T14:36:08.351Z,98585.54
2018-09-17T14:38:37.920Z,98584.70
2018-09-17T14:41:07.398Z,98572.09
2018-09-17T14:43:36.749Z,98575.00
2018-09-17T14:46:06.157Z,98571.13
2018-09-17T14:48:35.611Z,98573.30
2018-09-17T14:51:05.124Z,98563.78
2018-09-17T14:53:34.584Z,98557.27
2018-09-17T14:56:04.019Z,98552.55
2018-09-17T14:58:33.372Z,98559.84
2018-09-17T15:01:02.645Z,98558.58
2018-09-17T15:03:31.833Z,98554.48
2018-09-17T15:06:01.222Z,98562.02
2018-09-17T15:08:30.642Z,98556.80
2018-09-17T15:11:00.020Z,98550.06
2018-09-17T15:13:29.446Z,98555.41
2018-09-17T15:15:59.558Z,98549.89
2018-09-17T15:18:29.359Z,98545.45
2018-09-17T15:20:58.776Z,98543.50
2018-09-17T15:23:28.259Z,98548.03
2018-09-17T15:25:57.774Z,98550.92
2018-09-17T15:28:27.420Z,98546.14
2018-09-17T15:30:56.861Z,98543.49
2018-09-17T15:33:26.380Z,98536.19
2018-09-17T15:35:55.801Z,98534.94
2018-09-17T15:38:25.389Z,98535.89
2018-09-17T15:40:54.858Z,98542.02
2018-09-17T15:43:24.308Z,98537.86
2018-09-17T15:45:53.798Z,98532.99
2018-09-17T15:48:23.205Z,98531.73
2018-09-17T15:50:52.702Z,98529.05
2018-09-17T15:53:22.107Z,98526.61
2018-09-17T15:55:51.534Z,98524.95
2018-09-17T15:58:20.927Z,98525.25
2018-09-17T16:00:50.445Z,98531.53
2018-09-17T16:03:19.920Z,98533.23
2018-09-17T16:05:49.424Z,98531.34
2018-09-17T16:08:19.031Z,98527.31
2018-09-17T16:10:48.434Z,98525.18
2018-09-17T16:13:17.830Z,98519.30
2018-09-17T16:15:48.499Z,98524.74
2018-09-17T16:18:18.380Z,98522.55
2018-09-17T16:20:47.832Z,98523.66
2018-09-17T16:23:17.182Z,98520.78
2018-09-17T16:25:46.893Z,98516.02
2018-09-17T16:28:16.191Z,98517.67
2018-09-17T16:30:45.590Z,98520.19
2018-09-17T16:33:15.101Z,98522.73
2018-09-17T16:35:44.501Z,98518.24
2018-09-17T16:38:14.006Z,98525.61
2018-09-17T16:40:43.503Z,98521.11
2018-09-17T16:43:12.912Z,98522.81
2018-09-17T16:45:42.315Z,98523.70
2018-09-17T16:48:11.799Z,98520.00
2018-09-17T16:50:41.225Z,98524.88
2018-09-17T16:53:10.797Z,98524.38
2018-09-17T16:55:40.088Z,98525.24
2018-09-17T16:58:09.425Z,98526.08
2018-09-17T17:00:38.827Z,98525.80
2018-09-17T17:03:08.235Z,98529.30
2018-09-17T17:05:37.734Z,98524.20
2018-09-17T17:08:07.345Z,98523.91
2018-09-17T17:10:36.644Z,98529.77
2018-09-17T17:13:06.147Z,98533.23
2018-09-17T17:15:35.551Z,98529.41
2018-09-17T17:18:05.013Z,98530.16
2018-09-17T17:20:34.570Z,98531.09
2018-09-17T17:23:04.163Z,98530.23
2018-09-17T17:25:33.772Z,98535.26
2018-09-17T17:28:03.307Z,98531.88
2018-09-17T17:30:32.781Z,98532.28
2018-09-17T17:33:02.287Z,98538.91
2018-09-17T17:35:31.790Z,98533.34
2018-09-17T17:38:01.190Z,98529.20
2018-09-17T17:40:30.755Z,98527.41
2018-09-17T17:43:00.103Z,98529.17
2018-09-17T17:45:29.704Z,98527.97
2018-09-17T17:47:59.208Z,98532.37
2018-09-17T17:50:29.047Z,98531.67
2018-09-17T17:53:01.648Z,98536.36
2018-09-17T17:55:31.112Z,98536.86
2018-09-17T17:58:01.047Z,98539.06
2018-09-17T18:00:30.637Z,98542.48
2018-09-17T18:03:00.026Z,98548.55
2018-09-17T18:05:29.529Z,98547.21
2018-09-17T18:08:00.262Z,98551.35
2018-09-17T18:10:29.972Z,98549.89
2018-09-17T18:12:59.479Z,98552.08
2018-09-17T18:15:28.988Z,98556.12
2018-09-17T18:17:58.588Z,98554.46
2018-09-17T18:20:28.296Z,98558.71
2018-09-17T18:22:57.803Z,98556.98
2018-09-17T18:25:27.305Z,98557.37
2018-09-17T18:27:56.710Z,98563.30
2018-09-17T18:30:26.206Z,98565.02
2018-09-17T18:32:55.687Z,98561.56
2018-09-17T18:35:25.119Z,98570.81
2018-09-17T18:37:54.623Z,98568.28
2018-09-17T18:40:24.178Z,98569.28
2018-09-17T18:42:54.664Z,98570.92
2018-09-17T18:45:24.327Z,98570.66
2018-09-17T18:47:53.876Z,98572.00
2018-09-17T18:50:23.374Z,98569.06
2018-09-17T18:52:52.877Z,98575.25
2018-09-17T18:55:22.191Z,98568.09
2018-09-17T18:57:51.589Z,98573.91
2018-09-17T19:00:21.015Z,98577.23
2018-09-17T19:02:50.454Z,98578.45
2018-09-17T19:05:19.890Z,98573.91
2018-09-17T19:07:49.393Z,98577.89
2018-09-17T19:10:18.897Z,98571.55
2018-09-17T19:12:48.355Z,98573.68
2018-09-17T19:15:22.835Z,98568.47
2018-09-17T19:17:52.378Z,98566.69
2018-09-17T19:20:21.906Z,98571.30
2018-09-17T19:22:56.659Z,98566.01
2018-09-17T19:25:26.062Z,98569.05
2018-09-17T19:28:00.922Z,98570.61
2018-09-17T19:30:30.394Z,98539.86
2018-09-17T19:32:59.907Z,98567.11
2018-09-17T19:35:29.635Z,98564.46
2018-09-17T19:38:04.377Z,98560.34
2018-09-17T19:40:33.737Z,98563.73
2018-09-17T19:43:03.241Z,98559.22
2018-09-17T19:45:38.072Z,98560.42
2018-09-17T19:48:07.943Z,98562.52
2018-09-17T19:50:42.827Z,98559.73
2018-09-17T19:53:12.312Z,98563.25
2018-09-17T19:55:41.767Z,98559.76
2018-09-17T19:58:16.549Z,98566.22
2018-09-17T20:00:46.199Z,98559.64
2018-09-17T20:03:15.770Z,98563.70
2018-09-17T20:05:50.950Z,98564.22
2018-09-17T20:08:20.609Z,98573.01
2018-09-17T20:10:50.627Z,98566.19
2018-09-17T20:13:20.777Z,98567.91
2018-09-17T20:15:50.146Z,98563.03
2018-09-17T20:18:19.896Z,98559.27
2018-09-17T20:20:49.451Z,98562.61
2018-09-17T20:23:18.864Z,98561.18
2018-09-17T20:25:48.266Z,98558.94
2018-09-17T20:28:17.777Z,98561.27
2018-09-17T20:30:47.179Z,98558.39
2018-09-17T20:33:16.779Z,98558.19
2018-09-17T20:35:46.186Z,98555.94
2018-09-17T20:38:15.565Z,98555.91
2018-09-17T20:40:44.987Z,98554.59
2018-09-17T20:43:14.489Z,98552.66
2018-09-17T20:45:43.994Z,98550.16
2018-09-17T20:48:13.334Z,98549.17
2018-09-17T20:50:42.733Z,98547.39
2018-09-17T20:53:12.252Z,98546.72
2018-09-17T20:55:41.614Z,98528.91
2018-09-17T20:58:11.207Z,98548.04
2018-09-17T21:00:40.770Z,98552.37
2018-09-17T21:03:10.534Z,98549.05
2018-09-17T21:05:40.341Z,98545.84
2018-09-17T21:08:09.841Z,98544.00
2018-09-17T21:10:39.066Z,98545.27
2018-09-17T21:15:42.675Z,98546.66
2018-09-17T21:18:12.160Z,98545.64
2018-09-17T21:20:41.665Z,98553.19
2018-09-17T21:23:11.135Z,98552.13
2018-09-17T21:25:40.466Z,98547.03
2018-09-17T21:28:10.011Z,98536.90
2018-09-17T21:30:39.818Z,98534.23
2018-09-17T21:33:10.014Z,98526.82
2018-09-17T21:35:39.821Z,98526.89
2018-09-17T21:38:09.629Z,98525.99
2018-09-17T21:40:39.405Z,98528.02
2018-09-17T21:43:09.231Z,98527.25
2018-09-17T21:45:39.758Z,98530.88
2018-09-17T21:48:09.804Z,98526.78
2018-09-17T21:50:40.738Z,98528.06
2018-09-17T21:53:11.470Z,98521.70
2018-09-17T21:55:42.192Z,98520.37
2018-09-17T21:58:11.744Z,98522.84
2018-09-17T22:00:46.436Z,98519.91
2018-09-17T22:03:16.038Z,98525.91
2018-09-17T22:05:45.748Z,98521.66
2018-09-17T22:08:15.149Z,98526.59
2018-09-17T22:10:44.741Z,98521.41
2018-09-17T22:13:14.367Z,98526.95
2018-09-17T22:15:43.794Z,98521.92
2018-09-17T22:18:13.279Z,98521.84
2018-09-17T22:20:42.634Z,98520.13
2018-09-17T22:23:11.942Z,98521.80
2018-09-17T22:25:41.437Z,98517.94
2018-09-17T22:28:11.288Z,98521.95
2018-09-17T22:30:40.896Z,98520.23
2018-09-17T22:33:11.525Z,98513.62
2018-09-17T22:35:40.931Z,98519.36
2018-09-17T22:38:10.545Z,98510.48
2018-09-17T22:40:39.779Z,98517.23
2018-09-17T22:43:09.311Z,98517.06
2018-09-17T22:45:38.740Z,98515.84
2018-09-17T22:48:08.245Z,98515.14
2018-09-17T22:50:37.723Z,98519.56
2018-09-17T22:53:07.153Z,98518.95
2018-09-17T22:55:36.718Z,98518.80
2018-09-17T22:58:06.157Z,98514.52
2018-09-17T23:00:35.558Z,98512.07
2018-09-17T23:03:04.961Z,98510.62
2018-09-17T23:05:34.267Z,98510.62
2018-09-17T23:08:03.764Z,98513.91
2018-09-17T23:10:33.167Z,98515.02
2018-09-17T23:13:02.673Z,98508.22
2018-09-17T23:15:32.281Z,98509.94
2018-09-17T23:18:01.789Z,98516.14
2018-09-17T23:20:31.289Z,98515.23
2018-09-17T23:23:00.794Z,98508.28
2018-09-17T23:25:30.298Z,98509.00
2018-09-17T23:27:59.802Z,98509.00
2018-09-17T23:30:29.203Z,98507.13
2018-09-17T23:32:58.771Z,98508.26
2018-09-17T23:35:28.111Z,98507.11
2018-09-17T23:37:57.558Z,98497.00
2018-09-17T23:40:27.017Z,98495.39
2018-09-17T23:42:56.928Z,98498.53
2018-09-17T23:45:26.326Z,98499.86
2018-09-17T23:47:55.839Z,98494.93
2018-09-17T23:50:25.339Z,98504.44
2018-09-17T23:52:54.842Z,98496.56
2018-09-17T23:55:24.255Z,98501.44
2018-09-17T23:57:53.750Z,98497.97
